LEZG/ZAZ METAR and TAF weather

Enter ICAO airport designator
Station Type Date Time Source
LEZG METAR 2018/12/11 23:30 UTC NOAA

LEZG 112330Z 27010KT CAVOK 07/03 Q1021


Station Type Date Time Source
LEZG Decoded METAR 2018/12/11 23:30 UTC NOAA

Zaragoza / Aeropuerto, Spain (LEZG) 41-40N 001-01W 258M
Dec 11, 2018 - 06:30 PM EST / 2018.12.11 2330 UTC
Wind: from the W (270 degrees) at 12 MPH (10 KT):0
Visibility: greater than 7 mile(s):0
Temperature: 44 F (7 C)
Dew Point: 37 F (3 C)
Relative Humidity: 75%
Pressure (altimeter): 30.15 in. Hg (1021 hPa)
ob: LEZG 112330Z 27010KT CAVOK 07/03 Q1021
cycle: 23

Station Type Date Time Source
LEZG TAF 2018/12/11 18:27 UTC NOAA

TAF LEZG 111700Z 1118/1218 27007KT 9999 FEW040 TX14/1214Z TN07/1206Z
TEMPO 1200/1209 28012KT


Example: see airport list